11:27
Airports
History
Links
Donate
Help keep this website running!
PayPal
Bitcoin
This page is community maintained. The information is intended for PC simulator navigation or reference.
Always use approved charts for navigation.
D18
Downwind Acres
Downwind Acres (D18)
Augusta Charter township, Michigan, United States (48191)
4
Lat/Lng:42° 9' 10.15" N / 83° 34' 2.77" W
42.152819 / -83.567437
Elevation:683'ft / 208mMSL
ID / ICAO:D18
Runways:1
Longest:06-24
Grass 756m / 2,482ft
Nearby Weather10:53 GMT 2018-02-20
Nearby weather at KYIP, Willow Run located 6.3 nautical miles from D18
Altimeter: 29.96
Visibility: 8.0 statute miles
Wind: 8 knots (from 210°)
Temp: 12°c / 54°f
Humidity: 93.6%

METAR: KYIP 201053Z 21008KT 8SM BKN036 BKN055 OVC100 12/11 A2996 RMK AO2 RAE36 SLP144 P0001 T01170106

(Powered by phpweather)
Nearby VORs <50NM
Nearby NDBs
Runway 06 / 24
Dimensions:756.4 x 30.5m 2482' x 100'ft
Surface:Grass
Runway 06 [A]Runway 24 [B]
Heading:054°TH 234°TH
Lat:
Lng:
42° 9' 3.18"N
83° 34' 16.19"W
42° 9' 17.11"N
83° 33' 49.35"W
User Notes and Comments
42° 9' 10.15" N / 83° 34' 2.77" W
Distance To
Airport ID:
Nearby Airports
4 Belleville 2.0 NM
43G NNE 33°
(R) Laszlo 5.8 NM
MI39 SSW 201°
(C) Willow Run 6.3 NM
KYIP ( WX ) NNE 17°
(C) Ann Arbor Muni 10.3 NM
KARB ( WX ) WNW 297°
(R) Trudeau 11.1 NM
1MI6 WSW 246°
(R) Milan 11.4 NM
MI09 SW 231°
4 Saline 11.5 NM
2C3 W 267°
VFR Chart
Flight Planning at SkyVector.com